Time;durP1;ratioP1;P1;durP2;ratioP2;P2;SDS_P1;SDS_P2;PMS_P1;PMS_P2;Temp;Humidity;BMP_temperature;BMP_pressure;BME280_temperature;BME280_humidity;BME280_pressure;Samples;Min_cycle;Max_cycle;Signal;HPM_P1;HPM_P2
2023/08/20 00:01:04;;;;;;;5.00;4.60;;;24.30;99.90;;;;;;5037096;28;20229;-71
2023/08/20 00:03:31;;;;;;;5.30;4.80;;;24.30;99.90;;;;;;5021232;28;20177;-71
2023/08/20 00:05:57;;;;;;;5.13;4.70;;;24.30;99.90;;;;;;5049989;28;20207;-70
2023/08/20 00:08:22;;;;;;;5.70;5.30;;;24.30;99.90;;;;;;5032180;28;20178;-71
2023/08/20 00:10:48;;;;;;;5.60;5.10;;;24.30;99.90;;;;;;5050890;28;20196;-70
2023/08/20 00:13:14;;;;;;;5.30;4.80;;;24.30;99.90;;;;;;5044949;28;20186;-70
2023/08/20 00:15:40;;;;;;;5.10;4.70;;;24.30;99.90;;;;;;5035640;28;20210;-70
2023/08/20 00:18:06;;;;;;;5.20;4.80;;;24.30;99.90;;;;;;5041617;28;20190;-71
2023/08/20 00:20:33;;;;;;;4.80;4.50;;;24.30;99.90;;;;;;5045225;28;20183;-71
2023/08/20 00:22:59;;;;;;;5.05;4.55;;;24.30;99.90;;;;;;5049723;28;20191;-71
2023/08/20 00:25:25;;;;;;;4.55;4.25;;;24.30;99.90;;;;;;5045238;28;20229;-71
2023/08/20 00:27:51;;;;;;;5.25;4.85;;;24.30;99.90;;;;;;5048798;28;20667;-71
2023/08/20 00:30:17;;;;;;;5.43;4.95;;;24.20;99.90;;;;;;5027386;28;20190;-71
2023/08/20 00:32:43;;;;;;;5.18;4.75;;;24.30;99.90;;;;;;5017553;28;20187;-70
2023/08/20 00:35:09;;;;;;;4.90;4.50;;;24.30;99.90;;;;;;5048307;28;20217;-71
2023/08/20 00:37:36;;;;;;;5.20;4.80;;;24.30;99.90;;;;;;5041046;28;20193;-71
2023/08/20 00:40:05;;;;;;;5.25;4.88;;;24.30;99.90;;;;;;5033142;28;20186;-70
2023/08/20 00:42:31;;;;;;;5.38;4.95;;;24.30;99.90;;;;;;5032942;28;20207;-71
2023/08/20 00:44:57;;;;;;;5.10;4.70;;;24.20;99.90;;;;;;5016269;28;20248;-71
2023/08/20 00:47:23;;;;;;;5.22;4.82;;;24.20;99.90;;;;;;5044232;28;20205;-71
2023/08/20 00:49:49;;;;;;;5.22;4.82;;;24.30;99.90;;;;;;5034958;28;20202;-70
2023/08/20 00:52:17;;;;;;;4.95;4.55;;;24.30;99.90;;;;;;5039760;28;20181;-71
2023/08/20 00:54:46;;;;;;;4.75;4.45;;;24.20;99.90;;;;;;5039853;28;20225;-70
2023/08/20 00:57:14;;;;;;;5.15;4.78;;;24.30;99.90;;;;;;5064827;28;20235;-70
2023/08/20 00:59:43;;;;;;;5.28;4.88;;;24.30;99.90;;;;;;5047604;28;20208;-71
2023/08/20 01:02:08;;;;;;;5.22;4.80;;;24.20;99.90;;;;;;5045545;28;20650;-71
2023/08/20 01:04:34;;;;;;;5.10;4.70;;;24.20;99.90;;;;;;5035777;28;20232;-70
2023/08/20 01:07:23;;;;;;;5.55;5.15;;;24.30;99.90;;;;;;5045196;28;20183;-71
2023/08/20 01:10:23;;;;;;;4.85;4.55;;;24.30;99.90;;;;;;5050860;28;20231;-70
2023/08/20 01:12:51;;;;;;;5.22;4.82;;;24.20;99.90;;;;;;5061032;28;20691;-70
2023/08/20 01:15:17;;;;;;;5.20;4.80;;;24.20;99.90;;;;;;5028141;28;20252;-70
2023/08/20 01:17:45;;;;;;;5.28;4.88;;;24.20;99.90;;;;;;5049713;28;20277;-70
2023/08/20 01:20:13;;;;;;;5.10;4.70;;;24.20;99.90;;;;;;5060934;28;20630;-70
2023/08/20 01:23:30;;;;;;;5.22;4.82;;;24.20;99.90;;;;;;5041005;28;20225;-70
2023/08/20 01:26:52;;;;;;;5.30;4.90;;;24.20;99.90;;;;;;5002756;28;20305;-71
2023/08/20 01:29:18;;;;;;;5.28;4.88;;;24.20;99.90;;;;;;5021042;28;20216;-71
2023/08/20 01:31:45;;;;;;;5.22;4.82;;;24.20;99.90;;;;;;5043937;28;20186;-71
2023/08/20 01:34:12;;;;;;;5.07;4.65;;;24.20;99.90;;;;;;5030606;28;20202;-71
2023/08/20 01:36:38;;;;;;;5.38;4.97;;;24.20;99.90;;;;;;5039226;28;20194;-71
2023/08/20 01:39:04;;;;;;;5.30;4.90;;;24.20;99.90;;;;;;5043891;28;20178;-71
2023/08/20 01:41:31;;;;;;;5.05;4.75;;;24.20;99.90;;;;;;5047183;28;20214;-71
2023/08/20 01:43:56;;;;;;;5.40;5.00;;;24.20;99.90;;;;;;5050270;28;20657;-71
2023/08/20 01:46:22;;;;;;;5.55;5.05;;;24.20;99.90;;;;;;5048308;28;20215;-71
2023/08/20 01:48:50;;;;;;;5.45;5.05;;;24.20;99.90;;;;;;5020399;28;20237;-71
2023/08/20 01:51:16;;;;;;;5.78;5.28;;;24.20;99.90;;;;;;5036222;28;20198;-70
2023/08/20 01:53:42;;;;;;;4.90;4.50;;;24.20;99.90;;;;;;5043633;28;20194;-71
2023/08/20 01:56:13;;;;;;;5.13;4.72;;;24.20;99.90;;;;;;5043524;28;20178;-70
2023/08/20 01:58:39;;;;;;;5.68;5.18;;;24.20;99.90;;;;;;5068164;28;20189;-71
2023/08/20 02:01:04;;;;;;;5.20;4.80;;;24.20;99.90;;;;;;5026434;28;20218;-70
2023/08/20 02:03:31;;;;;;;5.05;4.55;;;24.20;99.90;;;;;;5043545;28;20174;-70
2023/08/20 02:05:57;;;;;;;5.68;5.18;;;24.20;99.90;;;;;;5033348;28;20206;-70
2023/08/20 02:08:23;;;;;;;4.80;4.50;;;24.20;99.90;;;;;;5020390;28;20183;-70
2023/08/20 02:10:49;;;;;;;5.45;5.05;;;24.20;99.90;;;;;;5034298;28;20210;-70
2023/08/20 02:13:14;;;;;;;5.07;4.68;;;24.20;99.90;;;;;;5042987;28;20219;-70
2023/08/20 02:15:40;;;;;;;5.00;4.60;;;24.20;99.90;;;;;;5022652;28;20209;-71
2023/08/20 02:18:06;;;;;;;5.43;5.03;;;24.20;99.90;;;;;;5035148;28;20591;-71
2023/08/20 02:20:32;;;;;;;5.60;5.10;;;24.10;99.90;;;;;;5035075;28;20665;-71
2023/08/20 02:22:57;;;;;;;5.40;4.85;;;24.20;99.90;;;;;;5052657;28;20217;-71
2023/08/20 02:25:24;;;;;;;5.57;4.88;;;24.20;99.90;;;;;;5029930;28;20201;-71
2023/08/20 02:27:54;;;;;;;5.25;4.75;;;24.20;99.90;;;;;;5037583;28;20252;-71
2023/08/20 02:30:20;;;;;;;5.38;4.90;;;24.20;99.90;;;;;;5034988;28;20182;-71
2023/08/20 02:32:45;;;;;;;5.75;5.35;;;24.20;99.90;;;;;;5038199;28;20220;-70
2023/08/20 02:35:14;;;;;;;5.20;4.80;;;24.10;99.90;;;;;;5055523;28;20209;-71
2023/08/20 02:37:41;;;;;;;5.10;4.70;;;24.20;99.90;;;;;;5038934;28;20191;-71
2023/08/20 02:40:08;;;;;;;5.65;5.25;;;24.10;99.90;;;;;;5051583;28;20187;-71
2023/08/20 02:42:34;;;;;;;5.18;4.78;;;24.10;99.90;;;;;;5048886;28;20300;-70
2023/08/20 02:45:00;;;;;;;5.57;5.10;;;24.20;99.90;;;;;;5044697;28;20201;-71
2023/08/20 02:47:25;;;;;;;5.35;4.95;;;24.10;99.90;;;;;;5051546;28;20183;-71
2023/08/20 02:49:51;;;;;;;5.30;4.90;;;24.20;99.90;;;;;;5025934;28;20201;-70
2023/08/20 02:52:17;;;;;;;5.55;5.05;;;24.20;99.90;;;;;;5022409;28;20247;-70
2023/08/20 02:54:42;;;;;;;5.03;4.63;;;24.10;99.90;;;;;;5050911;28;20206;-71
2023/08/20 02:57:08;;;;;;;5.38;4.97;;;24.20;99.90;;;;;;5044785;28;20208;-71
2023/08/20 02:59:34;;;;;;;5.30;4.90;;;24.10;99.90;;;;;;5040927;28;20194;-70
2023/08/20 03:02:00;;;;;;;5.15;4.75;;;24.10;99.90;;;;;;5050062;28;20215;-70
2023/08/20 03:04:26;;;;;;;5.28;4.88;;;24.10;99.90;;;;;;5036773;28;20225;-71
2023/08/20 03:06:51;;;;;;;5.75;5.35;;;24.10;99.90;;;;;;5037157;28;20194;-71
2023/08/20 03:09:17;;;;;;;5.10;4.80;;;24.10;99.90;;;;;;5041922;28;20190;-71
2023/08/20 03:11:43;;;;;;;5.43;5.00;;;24.10;99.90;;;;;;5057898;28;20194;-70
2023/08/20 03:14:09;;;;;;;5.60;5.10;;;24.10;99.90;;;;;;5028771;28;20241;-70
2023/08/20 03:16:34;;;;;;;4.90;4.60;;;24.10;99.90;;;;;;5037383;28;20177;-71
2023/08/20 03:19:00;;;;;;;5.15;4.75;;;24.10;99.90;;;;;;5050505;28;20198;-71
2023/08/20 03:21:26;;;;;;;5.28;4.80;;;24.10;99.90;;;;;;5045859;28;20271;-71
2023/08/20 03:23:51;;;;;;;5.53;5.13;;;24.10;99.90;;;;;;5050304;28;20198;-71
2023/08/20 03:26:17;;;;;;;5.20;4.80;;;24.10;99.90;;;;;;5029180;28;20181;-70
2023/08/20 03:28:43;;;;;;;6.40;4.85;;;24.10;99.90;;;;;;5043408;28;20178;-70
2023/08/20 03:31:09;;;;;;;5.65;5.18;;;24.10;99.90;;;;;;5041228;28;20205;-70
2023/08/20 03:33:39;;;;;;;5.38;4.97;;;24.10;99.90;;;;;;5034033;28;20658;-70
2023/08/20 03:36:05;;;;;;;5.47;5.07;;;24.10;99.90;;;;;;5025599;28;20201;-70
2023/08/20 03:38:31;;;;;;;5.20;4.80;;;24.10;99.90;;;;;;5035429;28;20680;-70
2023/08/20 03:40:57;;;;;;;5.45;4.95;;;24.10;99.90;;;;;;5030619;28;20213;-70
2023/08/20 03:43:22;;;;;;;5.70;5.30;;;24.10;99.90;;;;;;5017206;28;20186;-70
2023/08/20 03:45:52;;;;;;;5.55;5.15;;;24.10;99.90;;;;;;5049720;28;20220;-71
2023/08/20 03:48:18;;;;;;;5.45;4.95;;;24.10;99.90;;;;;;5036782;28;20188;-71
2023/08/20 03:50:44;;;;;;;5.80;5.30;;;24.10;99.90;;;;;;5025457;28;20182;-70
2023/08/20 03:53:10;;;;;;;5.40;5.00;;;24.10;99.90;;;;;;5035168;28;20221;-70
2023/08/20 03:55:35;;;;;;;5.53;5.13;;;24.10;99.90;;;;;;5039772;28;20202;-71
2023/08/20 03:58:01;;;;;;;6.15;5.65;;;24.10;99.90;;;;;;5028338;28;20269;-71
2023/08/20 04:00:27;;;;;;;5.65;5.15;;;24.10;99.90;;;;;;5022124;28;20193;-71
2023/08/20 04:02:52;;;;;;;5.32;4.88;;;24.10;99.90;;;;;;5041426;28;20228;-69
2023/08/20 04:05:18;;;;;;;5.70;5.30;;;24.10;99.90;;;;;;5049878;28;20210;-70
2023/08/20 04:07:45;;;;;;;5.82;5.32;;;24.10;99.90;;;;;;5051270;28;20194;-70
2023/08/20 04:10:10;;;;;;;5.22;4.82;;;24.10;99.90;;;;;;5041639;28;20200;-71
2023/08/20 04:12:36;;;;;;;6.57;5.15;;;24.10;99.90;;;;;;5043942;28;20190;-69
2023/08/20 04:15:03;;;;;;;5.25;4.85;;;24.10;99.90;;;;;;5033213;28;20206;-70
2023/08/20 04:17:28;;;;;;;5.13;4.72;;;24.10;99.90;;;;;;5045197;28;20190;-71
2023/08/20 04:19:54;;;;;;;6.10;5.50;;;24.10;99.90;;;;;;5054043;28;20228;-70
2023/08/20 04:22:20;;;;;;;5.68;5.28;;;24.10;99.90;;;;;;5057922;28;20293;-71
2023/08/20 04:24:46;;;;;;;4.88;4.47;;;24.10;99.90;;;;;;5038371;28;20201;-70
2023/08/20 04:27:11;;;;;;;5.85;5.35;;;24.10;99.90;;;;;;5030295;28;20191;-70
2023/08/20 04:29:40;;;;;;;6.00;5.45;;;24.10;99.90;;;;;;5053860;28;20273;-71
2023/08/20 04:32:06;;;;;;;5.45;4.95;;;24.10;99.90;;;;;;5057012;28;20281;-70
2023/08/20 04:34:33;;;;;;;5.22;4.85;;;24.10;99.90;;;;;;5060603;28;20202;-70
2023/08/20 04:36:58;;;;;;;5.38;4.97;;;24.10;99.90;;;;;;5036766;28;20190;-70
2023/08/20 04:39:24;;;;;;;4.80;4.50;;;24.10;99.90;;;;;;5045432;28;20225;-70
2023/08/20 04:41:52;;;;;;;5.00;4.60;;;24.10;99.90;;;;;;5040564;28;20237;-71
2023/08/20 04:44:19;;;;;;;5.47;5.07;;;24.10;99.90;;;;;;5028918;28;20215;-71
2023/08/20 04:46:46;;;;;;;5.30;4.90;;;24.10;99.90;;;;;;5023490;28;20182;-70
2023/08/20 04:49:13;;;;;;;5.20;4.90;;;24.10;99.90;;;;;;5043071;28;20252;-71
2023/08/20 04:51:38;;;;;;;5.65;5.15;;;24.00;99.90;;;;;;5048408;28;20664;-71
2023/08/20 04:54:04;;;;;;;5.13;4.82;;;24.10;99.90;;;;;;5039728;28;20220;-70
2023/08/20 04:56:30;;;;;;;5.53;5.10;;;24.00;99.90;;;;;;5036203;28;20240;-70
2023/08/20 04:58:56;;;;;;;5.45;5.05;;;24.10;99.90;;;;;;5028308;28;20237;-71
2023/08/20 05:01:45;;;;;;;4.68;4.35;;;24.10;99.90;;;;;;5039602;28;20252;-71
2023/08/20 05:04:12;;;;;;;5.40;4.90;;;24.00;99.90;;;;;;5061165;28;20606;-71
2023/08/20 05:06:37;;;;;;;5.60;5.15;;;24.10;99.90;;;;;;5048502;28;20178;-71
2023/08/20 05:09:03;;;;;;;5.57;5.13;;;24.10;99.90;;;;;;5053030;28;20183;-70
2023/08/20 05:11:31;;;;;;;5.28;4.90;;;24.10;99.90;;;;;;5052948;28;20195;-71
2023/08/20 05:13:57;;;;;;;5.20;4.88;;;24.10;99.90;;;;;;5051939;28;20190;-71
2023/08/20 05:16:23;;;;;;;5.18;4.78;;;24.10;99.90;;;;;;5053194;28;20204;-71
2023/08/20 05:18:50;;;;;;;5.68;5.28;;;24.10;99.90;;;;;;5047787;28;20252;-71
2023/08/20 05:21:15;;;;;;;5.30;4.95;;;24.10;99.90;;;;;;5036090;28;20727;-70
2023/08/20 05:23:41;;;;;;;5.55;5.15;;;24.00;99.90;;;;;;5042555;28;20183;-71
2023/08/20 05:26:07;;;;;;;5.53;5.13;;;24.00;99.90;;;;;;5055720;28;20190;-70
2023/08/20 05:28:34;;;;;;;5.88;5.40;;;24.10;99.90;;;;;;5027570;28;20183;-70
2023/08/20 05:31:00;;;;;;;5.82;5.43;;;24.00;99.90;;;;;;5035744;28;20189;-71
2023/08/20 05:33:26;;;;;;;5.43;5.03;;;24.10;99.90;;;;;;5027620;28;20187;-71
2023/08/20 05:35:54;;;;;;;5.40;4.90;;;24.10;99.90;;;;;;5034745;28;20706;-71
2023/08/20 05:38:21;;;;;;;5.35;5.00;;;24.00;99.90;;;;;;5036729;28;20194;-71
2023/08/20 05:40:48;;;;;;;5.60;5.18;;;24.00;99.90;;;;;;5054899;28;20649;-70
2023/08/20 05:43:14;;;;;;;5.35;5.00;;;24.00;99.90;;;;;;5051953;28;20193;-71
2023/08/20 05:45:40;;;;;;;5.25;4.85;;;24.00;99.90;;;;;;5032448;28;20620;-70
2023/08/20 05:48:07;;;;;;;5.57;5.13;;;24.00;99.90;;;;;;5056286;28;20190;-71
2023/08/20 05:50:33;;;;;;;5.68;5.18;;;24.00;99.90;;;;;;5057023;28;20189;-70
2023/08/20 05:53:00;;;;;;;5.53;5.13;;;24.00;99.90;;;;;;5038492;28;20193;-70
2023/08/20 05:55:27;;;;;;;5.80;5.30;;;24.00;99.90;;;;;;5044142;28;20206;-71
2023/08/20 05:57:54;;;;;;;5.80;5.30;;;24.00;99.90;;;;;;5027288;28;20190;-71
2023/08/20 06:00:20;;;;;;;6.07;5.57;;;24.00;99.90;;;;;;5036799;28;20223;-71
2023/08/20 06:02:47;;;;;;;6.40;5.65;;;24.00;99.90;;;;;;5030403;28;20213;-70
2023/08/20 06:05:12;;;;;;;5.97;5.38;;;24.00;99.90;;;;;;5021179;28;20229;-70
2023/08/20 06:07:40;;;;;;;6.15;5.55;;;24.00;99.90;;;;;;5056162;28;20178;-71
2023/08/20 06:10:07;;;;;;;6.32;5.43;;;24.00;99.90;;;;;;5045390;28;20198;-70
2023/08/20 06:12:33;;;;;;;14.57;6.57;;;24.00;99.90;;;;;;5046734;28;20178;-70
2023/08/20 06:14:59;;;;;;;7.75;5.82;;;24.00;99.90;;;;;;5056192;28;20225;-70
2023/08/20 06:17:25;;;;;;;8.65;6.05;;;24.00;99.90;;;;;;5045375;28;20182;-71
2023/08/20 06:19:51;;;;;;;9.32;6.32;;;24.00;99.90;;;;;;5065896;28;20236;-71
2023/08/20 06:22:16;;;;;;;9.90;6.07;;;24.00;99.90;;;;;;5035742;28;20696;-70
2023/08/20 06:24:42;;;;;;;8.60;5.93;;;24.00;99.90;;;;;;5043179;28;20202;-71
2023/08/20 06:27:08;;;;;;;10.07;6.55;;;24.00;99.90;;;;;;5053024;28;20645;-71
2023/08/20 06:29:33;;;;;;;9.30;6.75;;;24.00;99.90;;;;;;5036274;28;20178;-71
2023/08/20 06:31:59;;;;;;;9.90;6.72;;;24.00;99.90;;;;;;5029782;28;20190;-69
2023/08/20 06:34:25;;;;;;;9.63;6.78;;;24.00;99.90;;;;;;5050219;28;20588;-70
2023/08/20 06:36:52;;;;;;;9.68;6.05;;;24.00;99.90;;;;;;5046399;28;20595;-71
2023/08/20 06:39:19;;;;;;;9.13;6.63;;;24.00;99.90;;;;;;5028775;28;20193;-70
2023/08/20 06:41:45;;;;;;;10.13;7.10;;;24.00;99.90;;;;;;5044140;28;20297;-71
2023/08/20 06:44:19;;;;;;;8.50;6.28;;;24.00;99.90;;;;;;5041643;28;20208;-70
2023/08/20 06:46:45;;;;;;;10.02;6.72;;;24.00;99.90;;;;;;5049522;28;20198;-70
2023/08/20 06:49:10;;;;;;;9.55;6.28;;;24.00;99.90;;;;;;5034673;28;20240;-70
2023/08/20 06:51:36;;;;;;;15.38;7.32;;;24.00;99.90;;;;;;5046453;28;20186;-70
2023/08/20 06:54:02;;;;;;;11.10;7.07;;;24.00;99.90;;;;;;5048176;28;20564;-70
2023/08/20 06:56:28;;;;;;;11.45;7.45;;;24.00;99.90;;;;;;5051238;28;20197;-71
2023/08/20 06:58:54;;;;;;;12.95;7.72;;;24.00;99.90;;;;;;5031673;28;20189;-71
2023/08/20 07:01:20;;;;;;;9.38;7.15;;;24.00;99.90;;;;;;5038687;28;20225;-70
2023/08/20 07:03:46;;;;;;;11.90;7.55;;;24.00;99.90;;;;;;5037453;28;20189;-70
2023/08/20 07:06:14;;;;;;;11.05;7.50;;;24.00;99.90;;;;;;5063951;28;20676;-70
2023/08/20 07:08:40;;;;;;;10.68;7.32;;;24.00;99.90;;;;;;5050408;28;20191;-70
2023/08/20 07:11:08;;;;;;;11.48;7.93;;;24.00;99.90;;;;;;5059004;28;20201;-70
2023/08/20 07:13:33;;;;;;;12.57;7.45;;;24.00;99.90;;;;;;5064250;28;20186;-70
2023/08/20 07:16:00;;;;;;;11.63;7.82;;;24.00;99.90;;;;;;5045939;28;20245;-71
2023/08/20 07:18:25;;;;;;;10.00;7.28;;;24.00;99.90;;;;;;5024332;28;20198;-71
2023/08/20 07:20:54;;;;;;;9.88;7.20;;;24.00;99.90;;;;;;5042265;28;20186;-71
2023/08/20 07:23:20;;;;;;;10.27;8.00;;;24.00;99.90;;;;;;5017858;28;20221;-70
2023/08/20 07:25:46;;;;;;;9.68;7.22;;;24.10;99.90;;;;;;5042259;28;20202;-70
2023/08/20 07:28:13;;;;;;;14.27;8.02;;;24.00;99.90;;;;;;5034240;28;20187;-71
2023/08/20 07:30:38;;;;;;;11.25;7.03;;;24.00;99.90;;;;;;5033977;28;20666;-70
2023/08/20 07:33:07;;;;;;;11.00;6.95;;;24.00;99.90;;;;;;5033642;28;20201;-70
2023/08/20 07:35:34;;;;;;;10.18;7.15;;;24.00;99.90;;;;;;5017435;28;20285;-70
2023/08/20 07:38:00;;;;;;;11.75;7.75;;;24.10;99.90;;;;;;5059602;28;20194;-71
2023/08/20 07:40:26;;;;;;;12.25;7.75;;;24.00;99.90;;;;;;5048201;28;20195;-70
2023/08/20 07:42:51;;;;;;;14.77;8.45;;;24.10;99.90;;;;;;5042816;28;20221;-70
2023/08/20 07:45:17;;;;;;;13.25;7.63;;;24.10;99.90;;;;;;5048488;28;20214;-71
2023/08/20 07:47:43;;;;;;;12.90;7.90;;;24.10;99.90;;;;;;5051068;28;20243;-71
2023/08/20 07:50:09;;;;;;;11.10;7.20;;;24.10;99.90;;;;;;5043673;28;20194;-70
2023/08/20 07:52:35;;;;;;;10.55;7.35;;;24.10;99.90;;;;;;5026331;28;20214;-70
2023/08/20 07:55:00;;;;;;;11.20;7.32;;;24.10;99.90;;;;;;5058331;28;20210;-70
2023/08/20 07:57:26;;;;;;;12.93;8.00;;;24.10;99.90;;;;;;5023224;28;20726;-70
2023/08/20 07:59:52;;;;;;;11.93;7.57;;;24.10;99.90;;;;;;5043044;28;20584;-69
2023/08/20 08:02:18;;;;;;;13.45;7.60;;;24.10;99.90;;;;;;5032483;28;20206;-70
2023/08/20 08:04:44;;;;;;;13.57;7.95;;;24.10;99.90;;;;;;5063376;28;20202;-71
2023/08/20 08:07:11;;;;;;;12.93;7.65;;;24.10;99.90;;;;;;5052714;28;20193;-71
2023/08/20 08:09:37;;;;;;;11.13;7.53;;;24.10;99.90;;;;;;5040794;28;20248;-71
2023/08/20 08:12:04;;;;;;;11.88;7.63;;;24.10;99.90;;;;;;5049083;28;20194;-71
2023/08/20 08:14:30;;;;;;;10.07;7.30;;;24.10;99.90;;;;;;5047037;28;20216;-71
2023/08/20 08:16:57;;;;;;;11.85;7.30;;;24.10;99.90;;;;;;5049812;28;20186;-71
2023/08/20 08:19:22;;;;;;;9.20;6.95;;;24.20;99.90;;;;;;5030311;28;20198;-72
2023/08/20 08:21:49;;;;;;;13.75;8.25;;;24.20;99.90;;;;;;5060222;28;20259;-72
2023/08/20 08:24:15;;;;;;;10.02;6.97;;;24.20;99.90;;;;;;5030409;28;20247;-72
2023/08/20 08:26:41;;;;;;;12.57;7.55;;;24.20;99.90;;;;;;5061722;28;20187;-71
2023/08/20 08:29:08;;;;;;;9.13;7.15;;;24.20;99.90;;;;;;5049259;28;20189;-71
2023/08/20 08:31:34;;;;;;;11.90;7.80;;;24.20;99.90;;;;;;5037327;28;20212;-71
2023/08/20 08:34:03;;;;;;;11.57;7.25;;;24.20;99.90;;;;;;5032012;28;20232;-72
2023/08/20 08:36:29;;;;;;;13.00;7.43;;;24.20;99.90;;;;;;5044949;28;20551;-72
2023/08/20 08:38:55;;;;;;;10.27;6.90;;;24.20;99.90;;;;;;5052075;28;20194;-71
2023/08/20 08:41:25;;;;;;;9.73;7.40;;;24.20;99.90;;;;;;5039095;28;20224;-72
2023/08/20 08:43:51;;;;;;;9.15;7.25;;;24.30;99.90;;;;;;5027364;28;20201;-71
2023/08/20 08:46:17;;;;;;;11.80;7.32;;;24.30;99.90;;;;;;5043944;28;20183;-72
2023/08/20 08:48:46;;;;;;;11.30;6.57;;;24.20;99.90;;;;;;5054797;28;20193;-72
2023/08/20 08:51:16;;;;;;;7.45;6.65;;;24.30;99.90;;;;;;5043189;28;20202;-72
2023/08/20 08:53:46;;;;;;;10.27;6.53;;;24.30;99.90;;;;;;5019654;28;20201;-71
2023/08/20 08:56:12;;;;;;;10.43;6.47;;;24.20;99.90;;;;;;5053292;28;20244;-71
2023/08/20 08:58:38;;;;;;;8.43;6.80;;;24.30;99.90;;;;;;5035600;28;20190;-71
2023/08/20 09:01:04;;;;;;;9.65;6.15;;;24.30;99.90;;;;;;5035372;28;20194;-71
2023/08/20 09:03:29;;;;;;;8.60;6.47;;;24.30;99.90;;;;;;5035278;28;20189;-71
2023/08/20 09:06:03;;;;;;;10.27;6.57;;;24.30;99.90;;;;;;5026802;28;20298;-71
2023/08/20 09:08:31;;;;;;;8.88;5.65;;;24.30;99.90;;;;;;5048830;28;20247;-71
2023/08/20 09:10:59;;;;;;;8.05;6.65;;;24.30;99.90;;;;;;5044311;28;20225;-72
2023/08/20 09:13:39;;;;;;;11.23;6.78;;;24.30;99.90;;;;;;5043305;28;20190;-70
2023/08/20 09:16:07;;;;;;;10.77;6.72;;;24.30;99.90;;;;;;5018809;28;20217;-71
2023/08/20 09:20:37;;;;;;;8.43;6.38;;;24.30;99.90;;;;;;5069094;28;20629;-72
2023/08/20 09:23:04;;;;;;;9.52;6.03;;;24.30;99.90;;;;;;5047900;28;20679;-72
2023/08/20 09:25:30;;;;;;;6.45;5.85;;;24.30;99.90;;;;;;5081240;28;20618;-71
2023/08/20 09:27:55;;;;;;;6.80;6.07;;;24.30;99.90;;;;;;5048105;28;20192;-71
2023/08/20 09:30:21;;;;;;;9.93;6.78;;;24.30;99.90;;;;;;5057459;28;20194;-72
2023/08/20 09:33:08;;;;;;;8.88;6.95;;;24.30;99.90;;;;;;5058844;28;20193;-72
2023/08/20 09:35:34;;;;;;;7.10;6.03;;;24.30;99.90;;;;;;5059763;28;20268;-70
2023/08/20 09:38:01;;;;;;;9.10;6.47;;;24.30;99.90;;;;;;5056161;28;20198;-71
2023/08/20 09:40:27;;;;;;;8.98;6.57;;;24.40;99.90;;;;;;5064031;28;20767;-71
2023/08/20 09:42:55;;;;;;;6.65;6.00;;;24.30;99.90;;;;;;5059578;28;20217;-69
2023/08/20 09:45:22;;;;;;;9.05;6.55;;;24.30;99.90;;;;;;5067523;28;20228;-72
2023/08/20 09:47:56;;;;;;;8.45;6.30;;;24.40;99.90;;;;;;5048681;28;20205;-72
2023/08/20 09:50:23;;;;;;;8.23;5.97;;;24.40;99.90;;;;;;5058238;28;20211;-72
2023/08/20 09:53:11;;;;;;;6.90;6.20;;;24.40;99.90;;;;;;5059750;28;20194;-69
2023/08/20 09:55:41;;;;;;;7.85;6.47;;;24.30;99.90;;;;;;5051633;28;20217;-70
2023/08/20 09:58:08;;;;;;;7.28;6.28;;;24.30;99.90;;;;;;5037034;28;20228;-69
2023/08/20 10:00:35;;;;;;;8.57;6.32;;;24.40;99.90;;;;;;5069063;28;20598;-70
2023/08/20 10:03:02;;;;;;;8.45;6.20;;;24.40;99.90;;;;;;5054916;28;20199;-69
2023/08/20 10:05:29;;;;;;;7.20;6.15;;;24.40;99.90;;;;;;5039164;28;20270;-70
2023/08/20 10:07:57;;;;;;;9.63;6.82;;;24.40;99.90;;;;;;5050569;28;20277;-70
2023/08/20 10:10:24;;;;;;;7.13;6.30;;;24.40;99.90;;;;;;5060056;28;20193;-70
2023/08/20 10:12:50;;;;;;;8.20;6.40;;;24.40;99.90;;;;;;5015257;28;20189;-69
2023/08/20 10:15:16;;;;;;;9.18;6.88;;;24.40;99.90;;;;;;5029894;28;20701;-70
2023/08/20 10:17:44;;;;;;;6.85;6.22;;;24.40;99.90;;;;;;5065081;28;20182;-70
2023/08/20 10:20:15;;;;;;;8.48;6.85;;;24.40;99.90;;;;;;5059886;28;20205;-70
2023/08/20 10:22:43;;;;;;;6.93;6.22;;;24.40;99.90;;;;;;5058340;28;20205;-69
2023/08/20 10:25:12;;;;;;;6.78;6.18;;;24.40;99.90;;;;;;5041148;28;20229;-70
2023/08/20 10:27:42;;;;;;;6.47;5.97;;;24.40;99.90;;;;;;5049538;28;20197;-71
2023/08/20 10:30:17;;;;;;;8.13;6.50;;;24.40;99.90;;;;;;5027330;28;20224;-69
2023/08/20 10:32:58;;;;;;;7.50;6.68;;;24.40;99.90;;;;;;5036136;28;20190;-70
2023/08/20 10:35:46;;;;;;;7.95;6.20;;;24.40;99.90;;;;;;5045043;28;20214;-70
2023/08/20 10:38:16;;;;;;;8.07;7.00;;;24.40;99.90;;;;;;5040037;28;20198;-70
2023/08/20 10:40:53;;;;;;;7.15;6.55;;;24.50;99.90;;;;;;5018936;28;20257;-69
2023/08/20 10:43:37;;;;;;;7.25;6.55;;;24.40;99.90;;;;;;5031095;28;20178;-70
2023/08/20 10:46:22;;;;;;;7.30;6.65;;;24.40;99.90;;;;;;5032682;28;20290;-70
2023/08/20 10:49:02;;;;;;;7.30;6.68;;;24.40;99.90;;;;;;5044352;28;20206;-69
2023/08/20 10:51:36;;;;;;;7.15;6.53;;;24.40;99.90;;;;;;5054116;28;20190;-70
2023/08/20 10:54:03;;;;;;;7.18;6.47;;;24.40;99.90;;;;;;5033240;28;20217;-70
2023/08/20 10:56:47;;;;;;;8.00;7.20;;;24.50;99.90;;;;;;5042453;28;20199;-69
2023/08/20 10:59:21;;;;;;;6.68;6.07;;;24.40;99.90;;;;;;5044568;28;20202;-69
2023/08/20 11:01:54;;;;;;;7.47;6.53;;;24.40;99.90;;;;;;5044134;28;20226;-70
2023/08/20 11:04:23;;;;;;;7.75;7.05;;;24.40;99.90;;;;;;5040799;28;20720;-70
2023/08/20 11:06:59;;;;;;;7.60;6.90;;;24.40;99.90;;;;;;5032755;28;20241;-69
2023/08/20 11:09:30;;;;;;;7.22;6.57;;;24.40;99.90;;;;;;5040703;28;20182;-70
2023/08/20 11:11:57;;;;;;;7.10;6.50;;;24.50;99.90;;;;;;5052705;28;20190;-69
2023/08/20 11:14:23;;;;;;;6.60;6.10;;;24.40;99.90;;;;;;5037617;28;20239;-70
2023/08/20 11:16:50;;;;;;;8.30;7.40;;;24.50;99.90;;;;;;5040696;28;20229;-69
2023/08/20 11:19:21;;;;;;;7.45;6.75;;;24.40;99.90;;;;;;5020901;28;20210;-70
2023/08/20 11:21:48;;;;;;;7.53;6.80;;;24.50;99.90;;;;;;5035616;28;20191;-69
2023/08/20 11:24:14;;;;;;;7.55;6.60;;;24.50;99.90;;;;;;5038319;28;20209;-70
2023/08/20 11:26:42;;;;;;;7.93;7.13;;;24.40;99.90;;;;;;5027246;28;20191;-70
2023/08/20 11:29:10;;;;;;;7.68;6.82;;;24.40;99.90;;;;;;5040065;28;20276;-70
2023/08/20 11:31:37;;;;;;;7.07;6.47;;;24.50;99.90;;;;;;5040173;28;20187;-70
2023/08/20 11:34:03;;;;;;;7.60;6.90;;;24.40;99.90;;;;;;5041592;28;20199;-70
2023/08/20 11:36:30;;;;;;;7.63;7.00;;;24.50;99.90;;;;;;5047207;28;20194;-69
2023/08/20 11:38:55;;;;;;;8.18;7.47;;;24.40;99.90;;;;;;5018925;28;20207;-70
2023/08/20 11:41:24;;;;;;;7.38;6.68;;;24.50;99.90;;;;;;5044883;28;20178;-70
2023/08/20 11:43:52;;;;;;;7.35;6.65;;;24.50;99.90;;;;;;5031450;28;20798;-70
2023/08/20 11:46:21;;;;;;;7.25;6.55;;;24.40;99.90;;;;;;5040153;28;20191;-70
2023/08/20 11:49:07;;;;;;;7.22;6.63;;;24.50;99.90;;;;;;5031890;28;20292;-70
2023/08/20 11:51:42;;;;;;;7.25;6.65;;;24.50;99.90;;;;;;5040421;28;20191;-70
2023/08/20 11:54:16;;;;;;;6.85;6.35;;;24.50;99.90;;;;;;5033229;28;20202;-69
2023/08/20 11:56:48;;;;;;;7.60;6.85;;;24.50;99.90;;;;;;5041258;28;20179;-69
2023/08/20 11:59:15;;;;;;;7.28;6.57;;;24.50;99.90;;;;;;5038714;28;20602;-71
2023/08/20 12:01:41;;;;;;;7.53;6.93;;;24.50;99.90;;;;;;5031504;28;20183;-70
2023/08/20 12:04:10;;;;;;;6.88;6.38;;;24.50;99.90;;;;;;5018561;28;20228;-70
2023/08/20 12:06:37;;;;;;;7.70;7.00;;;24.50;99.90;;;;;;5045355;28;20191;-70
2023/08/20 12:09:23;;;;;;;7.57;6.88;;;24.50;99.90;;;;;;5018097;28;20239;-70
2023/08/20 12:11:50;;;;;;;7.50;6.80;;;24.50;99.90;;;;;;5042309;28;20281;-70
2023/08/20 12:14:18;;;;;;;8.38;6.85;;;24.50;99.90;;;;;;5035766;28;20340;-70
2023/08/20 12:16:45;;;;;;;7.47;6.85;;;24.50;99.90;;;;;;5026566;28;20195;-69
2023/08/20 12:19:11;;;;;;;7.40;6.50;;;24.50;99.90;;;;;;5022651;28;20203;-69
2023/08/20 12:21:37;;;;;;;7.32;6.72;;;24.50;99.90;;;;;;5041163;28;20345;-69
2023/08/20 12:24:04;;;;;;;7.68;7.03;;;24.50;99.90;;;;;;5039330;28;20215;-69
2023/08/20 12:26:30;;;;;;;7.22;6.60;;;24.50;99.90;;;;;;5040600;28;20194;-70
2023/08/20 12:28:55;;;;;;;7.43;6.82;;;24.50;99.90;;;;;;5026066;28;20196;-69
2023/08/20 12:31:21;;;;;;;6.78;6.28;;;24.50;99.90;;;;;;5051367;28;20178;-69
2023/08/20 12:33:47;;;;;;;7.20;6.60;;;24.50;99.90;;;;;;5023199;28;20188;-70
2023/08/20 12:36:12;;;;;;;7.10;6.50;;;24.50;99.90;;;;;;5051203;28;20645;-70
2023/08/20 12:38:38;;;;;;;7.10;6.50;;;24.60;99.90;;;;;;5043367;28;20214;-70
2023/08/20 12:41:05;;;;;;;7.80;7.10;;;24.60;99.90;;;;;;5038482;28;20290;-70
2023/08/20 12:43:31;;;;;;;7.85;7.20;;;24.60;99.90;;;;;;5032191;28;20329;-70
2023/08/20 12:45:56;;;;;;;7.15;6.63;;;24.60;99.90;;;;;;5033714;28;20304;-69
2023/08/20 12:48:22;;;;;;;7.22;6.57;;;24.60;99.90;;;;;;5017900;28;20184;-70
2023/08/20 12:50:48;;;;;;;7.25;6.65;;;24.60;99.90;;;;;;5020504;28;20190;-69